YM Jupiter — 9HTF8 — position and weather

sailwx.info

Track history (hours):
 
Tides and Currents Weather Stations Pressure Air Temp Water Temp Dewpoint Dewpoint Depression Visibility Wind Speed Wind Dir Waves Ship Positions

YM Jupiter

Last reported at 2018-Feb-23 05:57 UTC. Time now 2018-Feb-23 06:10 UTC.
Position N 49°49' W 003°27'.

Length 148 m; draft 8.8 m.

Type: Tanker. MMSI: 256398000.

Date/timePositionNaut miles runAvg speedWind from/ knotsBaromVisibWave heightAir tempDewpointWater temp
2018-Feb-23 05:57N 49°49' W 003°27'613.5
2018-Feb-23 05:30N 49°53' W 003°19'612.8
2018-Feb-23 05:00N 49°56' W 003°11'612.4
2018-Feb-23 04:30N 49°58' W 003°01'713.1
2018-Feb-23 04:01N 49°60' W 002°52'612.8
2018-Feb-23 03:31N 50°02' W 002°42'712.4
2018-Feb-23 02:57N 50°04' W 002°32'2910.5
2018-Feb-23 00:11N 50°11' W 001°48'2 9.7
2018-Feb-22 23:58N 50°12' W 001°45'1010.0
2018-Feb-22 22:58N 50°14' W 001°30'4412.8
2018-Feb-22 19:31N 50°26' W 000°23'011.9
2018-Feb-22 19:30N 50°26' W 000°23'713.9
2018-Feb-22 18:59N 50°28' W 000°12'713.7
2018-Feb-22 18:30N 50°30' W 000°02'713.7
2018-Feb-22 18:00N 50°31' E 000°09'713.5
2018-Feb-22 17:30N 50°33' E 000°19'713.1
2018-Feb-22 17:00N 50°35' E 000°29'612.4
2018-Feb-22 16:30N 50°38' E 000°38'612.2
2018-Feb-22 16:00N 50°41' E 000°45'611.7
2018-Feb-22 15:30N 50°45' E 000°52'611.4
2018-Feb-22 15:00N 50°48' E 000°60'611.3
2018-Feb-22 14:30N 50°52' E 001°06'611.6
2018-Feb-22 13:59N 50°56' E 001°13'611.9
2018-Feb-22 13:30N 51°00' E 001°20'612.9
2018-Feb-22 13:00N 51°04' E 001°28'714.7
2018-Feb-22 12:30N 51°09' E 001°37'714.6
2018-Feb-22 12:00N 51°14' E 001°45'714.7
2018-Feb-22 11:30N 51°20' E 001°52'713.4
2018-Feb-22 11:00N 51°25' E 001°59'612.5
2018-Feb-22 10:31N 51°23' E 002°09'612.8
2018-Feb-22 10:00N 51°20' E 002°18'713.5
2018-Feb-22 09:30N 51°23' E 002°29'713.0
2018-Feb-22 09:00N 51°23' E 002°39'510.7
2018-Feb-22 08:31N 51°22' E 002°48'612.0
2018-Feb-22 08:00N 51°24' E 002°57'611.3
2018-Feb-22 07:30N 51°24' E 003°06'611.9
2018-Feb-22 07:00N 51°25' E 003°15'611.7
2018-Feb-22 06:31N 51°25' E 003°25'511.0
2018-Feb-22 06:00N 51°26' E 003°34'5 9.2
2018-Feb-22 05:30N 51°25' E 003°41'510.4
2018-Feb-22 05:00N 51°21' E 003°47'2 3.8
2018-Feb-22 04:29N 51°20' E 003°49'0 0.4
2018-Feb-22 04:00N 51°20' E 003°49'2 4.2
2018-Feb-22 03:30N 51°18' E 003°50'3 5.5
2018-Feb-22 03:00N 51°15' E 003°49'3 6.4
2018-Feb-22 02:31N 51°12' E 003°48'3 6.6
2018-Feb-22 02:01N 51°09' E 003°47'3 6.5
2018-Feb-22 01:31N 51°06' E 003°44'1 1.7
2018-Feb-22 00:55N 51°05' E 003°44'0 0.0
2018-Feb-22 00:13N 51°05' E 003°44'0 0.0
2018-Feb-21 23:56N 51°05' E 003°44'0 0.0
2018-Feb-21 23:29N 51°05' E 003°44'0 0.0
2018-Feb-21 22:59N 51°05' E 003°44'0 0.0
2018-Feb-21 22:29N 51°05' E 003°44'0 0.0
2018-Feb-21 21:55N 51°05' E 003°44'0 0.0
2018-Feb-21 21:28N 51°05' E 003°44'0 0.0
2018-Feb-21 20:52N 51°05' E 003°44'0 0.0
2018-Feb-21 20:25N 51°05' E 003°44'0 0.0
2018-Feb-21 19:57N 51°05' E 003°44'0 0.0
2018-Feb-21 19:26N 51°05' E 003°44'0 0.0
2018-Feb-21 18:59N 51°05' E 003°44'0 0.0
2018-Feb-21 18:30N 51°05' E 003°44'0 0.0
2018-Feb-21 17:50N 51°05' E 003°44'0 0.0
2018-Feb-21 17:26N 51°05' E 003°44'0 0.0
2018-Feb-21 16:51N 51°05' E 003°44'0 0.0
2018-Feb-21 16:29N 51°05' E 003°44'0 0.0
2018-Feb-21 15:50N 51°05' E 003°44'0 0.0
2018-Feb-21 15:29N 51°05' E 003°44'0 0.0
2018-Feb-21 14:56N 51°05' E 003°44'0 0.0
2018-Feb-21 14:26N 51°05' E 003°44'0 0.0
2018-Feb-21 13:59N 51°05' E 003°44'0 0.0
2018-Feb-21 13:29N 51°05' E 003°44'0 0.0
2018-Feb-21 13:01N 51°05' E 003°44'0 0.0
2018-Feb-21 12:29N 51°05' E 003°44'0 0.0
2018-Feb-21 12:00N 51°05' E 003°44'0 0.0
2018-Feb-21 11:17N 51°05' E 003°44'0 0.0
2018-Feb-21 10:57N 51°05' E 003°44'0 0.0
2018-Feb-21 10:18N 51°05' E 003°44'0 0.0
2018-Feb-21 09:51N 51°05' E 003°44'0 0.0
2018-Feb-21 09:30N 51°05' E 003°44'0 0.0
2018-Feb-21 09:00N 51°05' E 003°44'0 0.0
2018-Feb-21 08:30N 51°05' E 003°44'0 0.0
2018-Feb-21 07:51N 51°05' E 003°44'0 0.0
2018-Feb-21 07:28N 51°05' E 003°44'0 0.0
2018-Feb-21 06:55N 51°05' E 003°44'0 0.0
2018-Feb-21 06:25N 51°05' E 003°44'0 0.0
2018-Feb-21 05:55N 51°05' E 003°44'0 0.0
2018-Feb-21 05:26N 51°05' E 003°44'0 0.0
2018-Feb-21 04:58N 51°05' E 003°44'0 0.0
2018-Feb-21 04:29N 51°05' E 003°44'0 0.0
2018-Feb-21 03:53N 51°05' E 003°44'0 0.0
2018-Feb-21 03:23N 51°05' E 003°44'0 0.0
2018-Feb-21 02:59N 51°05' E 003°44'0 0.0
2018-Feb-21 02:23N 51°05' E 003°44'0 0.0
2018-Feb-21 01:59N 51°05' E 003°44'0 0.0
2018-Feb-21 01:29N 51°05' E 003°44'0 0.0
2018-Feb-21 00:59N 51°05' E 003°44'0 0.0
2018-Feb-21 00:28N 51°05' E 003°44'0 0.0
2018-Feb-20 23:58N 51°05' E 003°44'0 0.0
2018-Feb-20 23:28N 51°05' E 003°44'0 0.0
2018-Feb-20 22:58N 51°05' E 003°44'0 0.0
2018-Feb-20 22:28N 51°05' E 003°44'0 0.0
2018-Feb-20 21:52N 51°05' E 003°44'0 0.0
2018-Feb-20 21:25N 51°05' E 003°44'0 0.0
2018-Feb-20 20:52N 51°05' E 003°44'0 0.0
2018-Feb-20 20:28N 51°05' E 003°44'0 0.0
2018-Feb-20 19:58N 51°05' E 003°44'0 0.0
2018-Feb-20 19:28N 51°05' E 003°44'0 0.0
2018-Feb-20 18:55N 51°05' E 003°44'0 0.0
2018-Feb-20 18:25N 51°05' E 003°44'0 0.0
2018-Feb-20 17:58N 51°05' E 003°44'0 0.0
2018-Feb-20 17:25N 51°05' E 003°44'0 0.0
2018-Feb-20 16:58N 51°05' E 003°44'0 0.0
2018-Feb-20 16:25N 51°05' E 003°44'0 0.0
2018-Feb-20 15:52N 51°05' E 003°44'0 0.0
2018-Feb-20 15:30N 51°05' E 003°44'0 0.3
2018-Feb-20 15:00N 51°05' E 003°45'0 0.0
2018-Feb-20 14:27N 51°05' E 003°45'0 0.0
2018-Feb-20 13:57N 51°05' E 003°45'0 0.0
2018-Feb-20 13:30N 51°05' E 003°45'0 0.0
2018-Feb-20 12:57N 51°05' E 003°45'0 0.0
2018-Feb-20 12:30N 51°05' E 003°45'0 0.0
2018-Feb-20 11:50N 51°05' E 003°45'0 0.0
2018-Feb-20 11:26N 51°05' E 003°45'0 0.3
2018-Feb-20 11:00N 51°05' E 003°44'2 3.2
2018-Feb-20 10:30N 51°06' E 003°44'3 6.1
2018-Feb-20 10:00N 51°09' E 003°47'3 5.7
2018-Feb-20 09:30N 51°12' E 003°48'3 6.5
2018-Feb-20 09:01N 51°15' E 003°49'3 6.4
2018-Feb-20 08:30N 51°18' E 003°50'2 3.0
2018-Feb-20 07:55N 51°20' E 003°49'0 0.4
2018-Feb-20 07:30N 51°20' E 003°49'1 1.2
2018-Feb-20 07:00N 51°20' E 003°49'1 1.5
2018-Feb-20 06:30N 51°21' E 003°48'2 4.7
2018-Feb-20 06:00N 51°22' E 003°44'5 9.2
2018-Feb-20 05:30N 51°25' E 003°39'2 4.6
2018-Feb-20 05:00N 51°26' E 003°35'4 9.0
2018-Feb-20 04:30N 51°25' E 003°42'510.0
2018-Feb-20 04:00N 51°21' E 003°48'4 8.6
2018-Feb-20 03:30N 51°22' E 003°55'4 7.9
2018-Feb-20 03:00N 51°25' E 003°58'3 5.9
2018-Feb-20 02:30N 51°24' E 004°02'4 8.1
2018-Feb-20 02:00N 51°22' E 004°08'3 6.4
2018-Feb-20 01:30N 51°22' E 004°13'4 9.0
2018-Feb-20 01:00N 51°18' E 004°17'3 5.5
2018-Feb-20 00:31N 51°17' E 004°20'0 0.0
2018-Feb-20 00:00N 51°17' E 004°20'1 1.6
2018-Feb-19 23:30N 51°16' E 004°21'0 0.4
2018-Feb-19 22:55N 51°16' E 004°21'0 0.0
2018-Feb-19 22:25N 51°16' E 004°21'0 0.0
2018-Feb-19 21:55N 51°16' E 004°21'0 0.0
2018-Feb-19 21:25N 51°16' E 004°21'0 0.0
2018-Feb-19 20:55N 51°16' E 004°21'0 0.0
2018-Feb-19 20:22N 51°16' E 004°21'0 0.0
2018-Feb-19 19:43N 51°16' E 004°21'0 0.0
2018-Feb-19 19:25N 51°16' E 004°21'0 0.0
2018-Feb-19 18:13N 51°16' E 004°21'0 0.0
2018-Feb-19 17:55N 51°16' E 004°21'0 0.0
2018-Feb-19 17:22N 51°16' E 004°21'0 0.0
2018-Feb-19 16:58N 51°16' E 004°21'0 0.0
2018-Feb-19 16:28N 51°16' E 004°21'0 0.0
2018-Feb-19 15:58N 51°16' E 004°21'0 0.0
2018-Feb-19 15:25N 51°16' E 004°21'0 0.0
2018-Feb-19 14:58N 51°16' E 004°21'0 0.0
2018-Feb-19 14:19N 51°16' E 004°21'0 0.0
2018-Feb-19 13:58N 51°16' E 004°21'0 0.0
2018-Feb-19 13:22N 51°16' E 004°21'0 0.0
2018-Feb-19 12:46N 51°16' E 004°21'0 0.0
2018-Feb-19 12:07N 51°16' E 004°21'0 0.0
2018-Feb-19 11:58N 51°16' E 004°21'0 0.0
2018-Feb-19 11:22N 51°16' E 004°21'0 0.0
2018-Feb-19 10:55N 51°16' E 004°21'0 0.0
2018-Feb-19 10:25N 51°16' E 004°21'0 0.0
2018-Feb-19 09:58N 51°16' E 004°21'0 0.0
2018-Feb-19 09:25N 51°16' E 004°21'0 0.0
2018-Feb-19 08:58N 51°16' E 004°21'0 0.0
2018-Feb-19 08:13N 51°16' E 004°21'0 0.0
2018-Feb-19 07:58N 51°16' E 004°21'0 0.0
2018-Feb-19 07:22N 51°16' E 004°21'0 0.0
2018-Feb-19 06:49N 51°16' E 004°21'0 0.0
2018-Feb-19 06:19N 51°16' E 004°21'0 0.0
2018-Feb-19 05:55N 51°16' E 004°21'0 0.0
2018-Feb-19 05:28N 51°16' E 004°21'0 0.0
2018-Feb-19 04:55N 51°16' E 004°21'0 0.0
2018-Feb-19 04:25N 51°16' E 004°21'0 0.0
2018-Feb-19 03:55N 51°16' E 004°21'0 0.0
2018-Feb-19 03:28N 51°16' E 004°21'0 0.0
2018-Feb-19 02:58N 51°16' E 004°21'0 0.0
2018-Feb-19 02:28N 51°16' E 004°21'0 0.0
2018-Feb-19 01:49N 51°16' E 004°21'0 0.0
2018-Feb-19 01:28N 51°16' E 004°21'0 0.0
2018-Feb-19 00:55N 51°16' E 004°21'0 0.0
2018-Feb-19 00:28N 51°16' E 004°21'0 0.0
2018-Feb-18 23:58N 51°16' E 004°21'0 0.0
2018-Feb-18 23:19N 51°16' E 004°21'0 0.0
2018-Feb-18 22:58N 51°16' E 004°21'0 0.0
2018-Feb-18 22:19N 51°16' E 004°21'0 0.0
2018-Feb-18 21:52N 51°16' E 004°21'0 0.0
2018-Feb-18 21:16N 51°16' E 004°21'0 0.0
2018-Feb-18 20:52N 51°16' E 004°21'0 0.0
2018-Feb-18 20:25N 51°16' E 004°21'0 0.0
2018-Feb-18 19:58N 51°16' E 004°21'0 0.0
2018-Feb-18 19:28N 51°16' E 004°21'0 0.0
2018-Feb-18 18:52N 51°16' E 004°21'0 0.0
2018-Feb-18 18:28N 51°16' E 004°21'0 0.0
2018-Feb-18 17:58N 51°16' E 004°21'0 0.0
2018-Feb-18 17:28N 51°16' E 004°21'0 0.0
2018-Feb-18 16:55N 51°16' E 004°21'0 0.0
2018-Feb-18 16:28N 51°16' E 004°21'0 0.0
2018-Feb-18 15:58N 51°16' E 004°21'0 0.0
2018-Feb-18 15:28N 51°16' E 004°21'0 0.0
2018-Feb-18 14:52N 51°16' E 004°21'0 0.0
2018-Feb-18 14:28N 51°16' E 004°21'0 0.0
2018-Feb-18 13:55N 51°16' E 004°21'0 0.0
2018-Feb-18 13:25N 51°16' E 004°21'0 0.0
2018-Feb-18 12:58N 51°16' E 004°21'0 0.0
2018-Feb-18 12:28N 51°16' E 004°21'0 0.0
2018-Feb-18 11:58N 51°16' E 004°21'0 0.0
2018-Feb-18 11:28N 51°16' E 004°21'0 0.0
2018-Feb-18 10:58N 51°16' E 004°21'0 0.0
2018-Feb-18 10:28N 51°16' E 004°21'0 0.0
2018-Feb-18 09:58N 51°16' E 004°21'0 0.0
2018-Feb-18 09:28N 51°16' E 004°21'0 0.0
2018-Feb-18 08:58N 51°16' E 004°21'0 0.0
2018-Feb-18 08:22N 51°16' E 004°21'0 0.0
2018-Feb-18 07:58N 51°16' E 004°21'0 0.0
2018-Feb-18 07:28N 51°16' E 004°21'0 0.0
2018-Feb-18 06:58N 51°16' E 004°21'0 0.0
2018-Feb-18 06:28N 51°16' E 004°21'1 2.8
2018-Feb-18 06:01N 51°17' E 004°20'4 7.7
2018-Feb-18 05:31N 51°20' E 004°18'0 0.5
2018-Feb-18 04:36N 51°21' E 004°17'0 0.0
2018-Feb-18 04:28N 51°21' E 004°17'0 0.0
2018-Feb-18 04:01N 51°21' E 004°17'1 1.2
2018-Feb-18 03:30N 51°21' E 004°16'4 7.4
2018-Feb-18 03:01N 51°24' E 004°13'612.8
2018-Feb-18 02:31N 51°23' E 004°02'4 7.0
2018-Feb-18 02:01N 51°23' E 003°57'713.9
2018-Feb-18 01:31N 51°22' E 003°46'713.6
2018-Feb-18 01:00N 51°25' E 003°37'611.5
2018-Feb-18 00:31N 51°25' E 003°28'713.4
2018-Feb-18 00:00N 51°24' E 003°17'612.8
2018-Feb-17 23:30N 51°24' E 003°07'511.0
2018-Feb-17 23:00N 51°23' E 002°58'611.1
2018-Feb-17 22:30N 51°22' E 002°49'510.1
2018-Feb-17 22:00N 51°22' E 002°41'3 6.8
2018-Feb-17 21:30N 51°21' E 002°36'1 2.6
2018-Feb-17 20:58N 51°20' E 002°35'0 0.1
2018-Feb-17 20:28N 51°20' E 002°35'0 0.0
2018-Feb-17 19:55N 51°20' E 002°35'0 0.0
2018-Feb-17 19:25N 51°20' E 002°35'0 0.0
2018-Feb-17 18:58N 51°20' E 002°35'0 0.0
2018-Feb-17 18:28N 51°20' E 002°35'0 0.0
2018-Feb-17 17:58N 51°20' E 002°35'0 0.2
2018-Feb-17 17:28N 51°20' E 002°35'0 0.1
2018-Feb-17 16:58N 51°20' E 002°35'0 0.0
2018-Feb-17 16:28N 51°20' E 002°35'0 0.0
2018-Feb-17 15:58N 51°20' E 002°35'0 0.0
2018-Feb-17 15:25N 51°20' E 002°35'0 0.0
2018-Feb-17 14:55N 51°20' E 002°35'0 0.0
2018-Feb-17 14:28N 51°20' E 002°35'0 0.0
2018-Feb-17 13:58N 51°20' E 002°35'0 0.0
2018-Feb-17 13:28N 51°20' E 002°35'0 0.0
2018-Feb-17 12:58N 51°20' E 002°35'0 0.0
2018-Feb-17 12:28N 51°20' E 002°35'0 0.1
2018-Feb-17 11:58N 51°20' E 002°35'0 0.2
2018-Feb-17 11:28N 51°20' E 002°35'0 0.0
2018-Feb-17 10:55N 51°20' E 002°34'0 0.0
2018-Feb-17 10:28N 51°20' E 002°35'0 0.0
2018-Feb-17 09:58N 51°20' E 002°35'0 0.0
2018-Feb-17 09:25N 51°20' E 002°34'0 0.0
2018-Feb-17 08:55N 51°20' E 002°34'0 0.0
2018-Feb-17 08:28N 51°20' E 002°34'0 0.0
2018-Feb-17 07:58N 51°20' E 002°34'0 0.1
2018-Feb-17 07:25N 51°20' E 002°35'0 0.0
2018-Feb-17 06:55N 51°20' E 002°35'0 0.0
2018-Feb-17 06:28N 51°20' E 002°35'0 0.0
2018-Feb-17 05:58N 51°20' E 002°35'0 0.0
2018-Feb-17 05:22N 51°20' E 002°35'0 0.1
2018-Feb-17 04:58N 51°20' E 002°35'0 0.1
2018-Feb-17 04:28N 51°20' E 002°35'0 0.0
2018-Feb-17 03:49N 51°20' E 002°35'0 0.0
2018-Feb-17 03:22N 51°20' E 002°35'0 0.0
2018-Feb-17 02:55N 51°20' E 002°35'0 0.0
2018-Feb-17 02:28N 51°20' E 002°35'0 0.0
2018-Feb-17 01:58N 51°20' E 002°35'0 0.0
2018-Feb-17 01:25N 51°20' E 002°35'0 0.0
2018-Feb-17 00:58N 51°20' E 002°35'0 0.0
2018-Feb-17 00:25N 51°20' E 002°35'0 0.1
2018-Feb-16 23:52N 51°20' E 002°35'0 0.2
2018-Feb-16 23:28N 51°20' E 002°34'0 0.1
2018-Feb-16 22:58N 51°20' E 002°34'0 0.0
2018-Feb-16 22:28N 51°20' E 002°34'0 0.0
2018-Feb-16 21:58N 51°20' E 002°34'0 0.0
2018-Feb-16 21:28N 51°20' E 002°34'1 2.0
2018-Feb-16 21:00N 51°21' E 002°33'3 5.8
2018-Feb-16 20:30N 51°21' E 002°29'4 8.8
2018-Feb-16 20:00N 51°20' E 002°22'4 8.9
2018-Feb-16 19:31N 51°18' E 002°16'5 9.9
2018-Feb-16 19:01N 51°19' E 002°08'510.5
2018-Feb-16 18:30N 51°23' E 002°01'5 9.9
2018-Feb-16 18:00N 51°27' E 002°01'510.9
2018-Feb-16 17:30N 51°32' E 002°07'510.5
2018-Feb-16 17:00N 51°35' E 002°12'510.1
2018-Feb-16 16:30N 51°39' E 002°18'12 9.2
2018-Feb-16 15:10N 51°47' E 002°33'2 8.5
2018-Feb-16 14:53N 51°45' E 002°32'513.6
2018-Feb-16 14:30N 51°41' E 002°27'714.0
2018-Feb-16 14:00N 51°35' E 002°20'714.1
2018-Feb-16 13:30N 51°29' E 002°14'612.9
2018-Feb-16 13:00N 51°24' E 002°09'611.2
2018-Feb-16 12:30N 51°21' E 002°17'510.5
2018-Feb-16 12:00N 51°22' E 002°26'611.1
2018-Feb-16 11:29N 51°23' E 002°35'511.4
2018-Feb-16 11:00N 51°22' E 002°44'510.7
2018-Feb-16 10:30N 51°22' E 002°52'713.4
2018-Feb-16 10:01N 51°24' E 003°02'612.9
2018-Feb-16 09:30N 51°24' E 003°12'712.9
2018-Feb-16 09:00N 51°25' E 003°23'613.0
2018-Feb-16 08:30N 51°26' E 003°33'4 8.2
2018-Feb-16 08:00N 51°26' E 003°40'612.7
2018-Feb-16 07:31N 51°22' E 003°46'713.5
2018-Feb-16 07:01N 51°23' E 003°57'3 6.7
2018-Feb-16 06:31N 51°24' E 004°02'612.4
2018-Feb-16 06:01N 51°24' E 004°12'612.8
2018-Feb-16 05:31N 51°18' E 004°17'3 5.0
2018-Feb-16 04:59N 51°17' E 004°20'0 0.0
2018-Feb-16 04:30N 51°17' E 004°20'0 0.7
2018-Feb-16 04:01N 51°16' E 004°20'1 2.2
2018-Feb-16 03:30N 51°15' E 004°21'1 1.8
2018-Feb-16 02:58N 51°15' E 004°23'0 0.0
2018-Feb-16 02:28N 51°15' E 004°23'0 0.0
2018-Feb-16 01:58N 51°15' E 004°23'0 0.0
2018-Feb-16 01:28N 51°15' E 004°23'0 0.0
2018-Feb-16 00:58N 51°15' E 004°23'0 0.0
2018-Feb-16 00:28N 51°15' E 004°23'0 0.0
2018-Feb-15 23:58N 51°15' E 004°23'0 0.0
2018-Feb-15 23:19N 51°15' E 004°23'0 0.0
2018-Feb-15 22:58N 51°15' E 004°23'0 0.0
2018-Feb-15 22:25N 51°15' E 004°23'0 0.0
2018-Feb-15 21:55N 51°15' E 004°23'0 0.0
2018-Feb-15 21:28N 51°15' E 004°23'0 0.0
2018-Feb-15 20:58N 51°15' E 004°23'0 0.0
2018-Feb-15 20:28N 51°15' E 004°23'0 0.0
2018-Feb-15 19:58N 51°15' E 004°23'0 0.0
2018-Feb-15 19:28N 51°15' E 004°23'0 0.0
2018-Feb-15 18:58N 51°15' E 004°23'0 0.7
2018-Feb-15 18:30N 51°15' E 004°22'1 2.7
2018-Feb-15 17:58N 51°16' E 004°21'0 0.0
2018-Feb-15 17:28N 51°16' E 004°21'0 0.0
2018-Feb-15 16:55N 51°16' E 004°21'0 0.0
2018-Feb-15 16:28N 51°16' E 004°21'0 0.0
2018-Feb-15 15:58N 51°16' E 004°21'0 0.0
2018-Feb-15 15:28N 51°16' E 004°21'0 0.0
2018-Feb-15 14:52N 51°16' E 004°21'0 0.0
2018-Feb-15 14:19N 51°16' E 004°21'0 0.0
2018-Feb-15 13:58N 51°16' E 004°21'0 0.0
2018-Feb-15 13:28N 51°16' E 004°21'0 0.0
2018-Feb-15 12:58N 51°16' E 004°21'0 0.0
2018-Feb-15 12:28N 51°16' E 004°21'0 0.0
2018-Feb-15 11:46N 51°16' E 004°21'0 0.0
2018-Feb-15 11:28N 51°16' E 004°21'0 0.0
2018-Feb-15 10:58N 51°16' E 004°21'0 0.0
2018-Feb-15 10:22N 51°16' E 004°21'0 0.0
2018-Feb-15 09:52N 51°16' E 004°21'0 0.0
2018-Feb-15 09:28N 51°16' E 004°21'0 0.0
2018-Feb-15 08:58N 51°16' E 004°21'0 0.0
2018-Feb-15 08:25N 51°16' E 004°21'0 0.0
2018-Feb-15 07:52N 51°16' E 004°21'0 0.0
2018-Feb-15 07:28N 51°16' E 004°21'0 0.0
2018-Feb-15 06:58N 51°16' E 004°21'0 0.0
2018-Feb-15 06:25N 51°16' E 004°21'0 0.0
2018-Feb-15 05:58N 51°16' E 004°21'0 0.0
2018-Feb-15 05:28N 51°16' E 004°21'0 0.0
2018-Feb-15 04:49N 51°16' E 004°21'0 0.0
2018-Feb-15 04:25N 51°16' E 004°21'0 0.0
2018-Feb-15 03:55N 51°16' E 004°21'0 0.0
2018-Feb-15 03:25N 51°16' E 004°21'0 0.0
2018-Feb-15 02:52N 51°16' E 004°21'0 0.0
2018-Feb-15 02:28N 51°16' E 004°21'0 0.0
2018-Feb-15 01:58N 51°16' E 004°21'0 0.0
2018-Feb-15 01:22N 51°16' E 004°21'0 0.0
2018-Feb-15 00:58N 51°16' E 004°21'0 0.0
2018-Feb-15 00:25N 51°16' E 004°21'0 0.0
2018-Feb-14 23:58N 51°16' E 004°21'0 0.0
2018-Feb-14 23:28N 51°16' E 004°21'0 0.0
2018-Feb-14 22:58N 51°16' E 004°21'0 0.0
2018-Feb-14 22:28N 51°16' E 004°21'0 0.0
2018-Feb-14 21:52N 51°16' E 004°21'0 0.0
2018-Feb-14 21:28N 51°16' E 004°21'0 0.0
2018-Feb-14 20:58N 51°16' E 004°21'0 0.0
2018-Feb-14 20:25N 51°16' E 004°21'0 0.0
2018-Feb-14 19:58N 51°16' E 004°21'0 0.0
2018-Feb-14 19:28N 51°16' E 004°21'0 0.0
2018-Feb-14 18:55N 51°16' E 004°21'0 0.0
2018-Feb-14 18:28N 51°16' E 004°21'0 0.0
2018-Feb-14 17:55N 51°16' E 004°21'0 0.0
2018-Feb-14 17:28N 51°16' E 004°21'0 0.0
2018-Feb-14 16:55N 51°16' E 004°21'0 0.0
2018-Feb-14 16:28N 51°16' E 004°21'0 0.0
2018-Feb-14 15:55N 51°16' E 004°21'0 0.0
2018-Feb-14 15:28N 51°16' E 004°21'0 0.0
2018-Feb-14 14:58N 51°16' E 004°21'0 0.0
2018-Feb-14 14:13N 51°16' E 004°21'0 0.0
2018-Feb-14 13:58N 51°16' E 004°21'1 1.6
2018-Feb-14 13:30N 51°17' E 004°20'0 0.0
2018-Feb-14 13:01N 51°17' E 004°20'1 1.5
2018-Feb-14 12:31N 51°17' E 004°19'3 6.6
2018-Feb-14 12:00N 51°20' E 004°16'5 9.9
2018-Feb-14 11:30N 51°23' E 004°10'510.6
2018-Feb-14 11:01N 51°24' E 004°02'3 7.0
2018-Feb-14 10:31N 51°23' E 003°57'612.5
2018-Feb-14 10:01N 51°21' E 003°47'611.8
2018-Feb-14 09:30N 51°26' E 003°41'5 9.5
2018-Feb-14 09:01N 51°25' E 003°33'5 9.8
2018-Feb-14 08:31N 51°25' E 003°26'611.5
2018-Feb-14 08:00N 51°24' E 003°17'511.0
2018-Feb-14 07:31N 51°24' E 003°08'510.4
2018-Feb-14 07:01N 51°23' E 002°60'510.6
2018-Feb-14 06:31N 51°22' E 002°51'610.3
2018-Feb-14 05:58N 51°22' E 002°43'3 6.9
2018-Feb-14 05:30N 51°22' E 002°37'3 6.8
2018-Feb-14 05:00N 51°22' E 002°32'510.8
2018-Feb-14 04:30N 51°20' E 002°24'612.1
2018-Feb-14 04:00N 51°17' E 002°16'612.5
2018-Feb-14 03:31N 51°13' E 002°08'612.5
2018-Feb-14 03:00N 51°10' E 001°59'612.9
2018-Feb-14 02:30N 51°07' E 001°50'713.3
2018-Feb-14 02:01N 51°03' E 001°42'713.9
2018-Feb-14 01:31N 50°58' E 001°34'714.1
2018-Feb-14 01:00N 50°52' E 001°28'714.2
2018-Feb-14 00:30N 50°45' E 001°25'713.4
2018-Feb-13 23:58N 50°39' E 001°18'9013.0
2018-Feb-13 17:01N 50°09' W 000°55'011.2
2018-Feb-13 17:00N 50°09' W 000°56'611.6
2018-Feb-13 16:30N 50°08' W 001°04'611.1
2018-Feb-13 16:00N 50°07' W 001°13'510.5
2018-Feb-13 15:30N 50°05' W 001°21'510.6
2018-Feb-13 15:00N 50°04' W 001°29'510.5
2018-Feb-13 14:30N 50°02' W 001°36'510.0
2018-Feb-13 14:01N 50°01' W 001°44'5 9.6
2018-Feb-13 13:31N 49°60' W 001°51'5 9.4
2018-Feb-13 13:00N 49°59' W 001°58'5 9.2
2018-Feb-13 12:31N 49°57' W 002°05'5 9.3
2018-Feb-13 12:00N 49°56' W 002°12'5 9.6
2018-Feb-13 11:31N 49°55' W 002°19'510.1
2018-Feb-13 11:01N 49°54' W 002°27'510.4
2018-Feb-13 10:30N 49°52' W 002°35'510.8
2018-Feb-13 10:00N 49°51' W 002°43'510.9
2018-Feb-13 09:31N 49°50' W 002°51'611.2
2018-Feb-13 09:00N 49°47' W 002°59'611.3
2018-Feb-13 08:30N 49°44' W 003°06'611.2
2018-Feb-13 08:00N 49°41' W 003°14'611.4
2018-Feb-13 07:30N 49°39' W 003°22'  
Track history (hours):
 
Tides and Currents Weather Stations Pressure Air Temp Water Temp Dewpoint Dewpoint Depression Visibility Wind Speed Wind Dir Waves Ship Positions

YM Jupiter

Last reported at 2018-Feb-23 05:57 UTC. Time now 2018-Feb-23 06:10 UTC.
Position N 49°49' W 003°27'.

Length 148 m; draft 8.8 m.

Type: Tanker. MMSI: 256398000.

Date/timePositionNaut miles runAvg speedWind from/ knotsBaromVisibWave heightAir tempDewpointWater temp
2018-Feb-23 05:57N 49°49' W 003°27'613.5
2018-Feb-23 05:30N 49°53' W 003°19'612.8
2018-Feb-23 05:00N 49°56' W 003°11'612.4
2018-Feb-23 04:30N 49°58' W 003°01'713.1
2018-Feb-23 04:01N 49°60' W 002°52'612.8
2018-Feb-23 03:31N 50°02' W 002°42'712.4
2018-Feb-23 02:57N 50°04' W 002°32'2910.5
2018-Feb-23 00:11N 50°11' W 001°48'2 9.7
2018-Feb-22 23:58N 50°12' W 001°45'1010.0
2018-Feb-22 22:58N 50°14' W 001°30'4412.8
2018-Feb-22 19:31N 50°26' W 000°23'011.9
2018-Feb-22 19:30N 50°26' W 000°23'713.9
2018-Feb-22 18:59N 50°28' W 000°12'713.7
2018-Feb-22 18:30N 50°30' W 000°02'713.7
2018-Feb-22 18:00N 50°31' E 000°09'713.5
2018-Feb-22 17:30N 50°33' E 000°19'713.1
2018-Feb-22 17:00N 50°35' E 000°29'612.4
2018-Feb-22 16:30N 50°38' E 000°38'612.2
2018-Feb-22 16:00N 50°41' E 000°45'611.7
2018-Feb-22 15:30N 50°45' E 000°52'611.4
2018-Feb-22 15:00N 50°48' E 000°60'611.3
2018-Feb-22 14:30N 50°52' E 001°06'611.6
2018-Feb-22 13:59N 50°56' E 001°13'611.9
2018-Feb-22 13:30N 51°00' E 001°20'612.9
2018-Feb-22 13:00N 51°04' E 001°28'714.7
2018-Feb-22 12:30N 51°09' E 001°37'714.6
2018-Feb-22 12:00N 51°14' E 001°45'714.7
2018-Feb-22 11:30N 51°20' E 001°52'713.4
2018-Feb-22 11:00N 51°25' E 001°59'612.5
2018-Feb-22 10:31N 51°23' E 002°09'612.8
2018-Feb-22 10:00N 51°20' E 002°18'713.5
2018-Feb-22 09:30N 51°23' E 002°29'713.0
2018-Feb-22 09:00N 51°23' E 002°39'510.7
2018-Feb-22 08:31N 51°22' E 002°48'612.0
2018-Feb-22 08:00N 51°24' E 002°57'611.3
2018-Feb-22 07:30N 51°24' E 003°06'611.9
2018-Feb-22 07:00N 51°25' E 003°15'611.7
2018-Feb-22 06:31N 51°25' E 003°25'511.0
2018-Feb-22 06:00N 51°26' E 003°34'5 9.2
2018-Feb-22 05:30N 51°25' E 003°41'510.4
2018-Feb-22 05:00N 51°21' E 003°47'2 3.8
2018-Feb-22 04:29N 51°20' E 003°49'0 0.4
2018-Feb-22 04:00N 51°20' E 003°49'2 4.2
2018-Feb-22 03:30N 51°18' E 003°50'3 5.5
2018-Feb-22 03:00N 51°15' E 003°49'3 6.4
2018-Feb-22 02:31N 51°12' E 003°48'3 6.6
2018-Feb-22 02:01N 51°09' E 003°47'3 6.5
2018-Feb-22 01:31N 51°06' E 003°44'1 1.7
2018-Feb-22 00:55N 51°05' E 003°44'0 0.0
2018-Feb-22 00:13N 51°05' E 003°44'0 0.0
2018-Feb-21 23:56N 51°05' E 003°44'0 0.0
2018-Feb-21 23:29N 51°05' E 003°44'0 0.0
2018-Feb-21 22:59N 51°05' E 003°44'0 0.0
2018-Feb-21 22:29N 51°05' E 003°44'0 0.0
2018-Feb-21 21:55N 51°05' E 003°44'0 0.0
2018-Feb-21 21:28N 51°05' E 003°44'0 0.0
2018-Feb-21 20:52N 51°05' E 003°44'0 0.0
2018-Feb-21 20:25N 51°05' E 003°44'0 0.0
2018-Feb-21 19:57N 51°05' E 003°44'0 0.0
2018-Feb-21 19:26N 51°05' E 003°44'0 0.0
2018-Feb-21 18:59N 51°05' E 003°44'0 0.0
2018-Feb-21 18:30N 51°05' E 003°44'0 0.0
2018-Feb-21 17:50N 51°05' E 003°44'0 0.0
2018-Feb-21 17:26N 51°05' E 003°44'0 0.0
2018-Feb-21 16:51N 51°05' E 003°44'0 0.0
2018-Feb-21 16:29N 51°05' E 003°44'0 0.0
2018-Feb-21 15:50N 51°05' E 003°44'0 0.0
2018-Feb-21 15:29N 51°05' E 003°44'0 0.0
2018-Feb-21 14:56N 51°05' E 003°44'0 0.0
2018-Feb-21 14:26N 51°05' E 003°44'0 0.0
2018-Feb-21 13:59N 51°05' E 003°44'0 0.0
2018-Feb-21 13:29N 51°05' E 003°44'0 0.0
2018-Feb-21 13:01N 51°05' E 003°44'0 0.0
2018-Feb-21 12:29N 51°05' E 003°44'0 0.0
2018-Feb-21 12:00N 51°05' E 003°44'0 0.0
2018-Feb-21 11:17N 51°05' E 003°44'0 0.0
2018-Feb-21 10:57N 51°05' E 003°44'0 0.0
2018-Feb-21 10:18N 51°05' E 003°44'0 0.0
2018-Feb-21 09:51N 51°05' E 003°44'0 0.0
2018-Feb-21 09:30N 51°05' E 003°44'0 0.0
2018-Feb-21 09:00N 51°05' E 003°44'0 0.0
2018-Feb-21 08:30N 51°05' E 003°44'0 0.0
2018-Feb-21 07:51N 51°05' E 003°44'0 0.0
2018-Feb-21 07:28N 51°05' E 003°44'0 0.0
2018-Feb-21 06:55N 51°05' E 003°44'0 0.0
2018-Feb-21 06:25N 51°05' E 003°44'0 0.0
2018-Feb-21 05:55N 51°05' E 003°44'0 0.0
2018-Feb-21 05:26N 51°05' E 003°44'0 0.0
2018-Feb-21 04:58N 51°05' E 003°44'0 0.0
2018-Feb-21 04:29N 51°05' E 003°44'0 0.0
2018-Feb-21 03:53N 51°05' E 003°44'0 0.0
2018-Feb-21 03:23N 51°05' E 003°44'0 0.0
2018-Feb-21 02:59N 51°05' E 003°44'0 0.0
2018-Feb-21 02:23N 51°05' E 003°44'0 0.0
2018-Feb-21 01:59N 51°05' E 003°44'0 0.0
2018-Feb-21 01:29N 51°05' E 003°44'0 0.0
2018-Feb-21 00:59N 51°05' E 003°44'0 0.0
2018-Feb-21 00:28N 51°05' E 003°44'0 0.0
2018-Feb-20 23:58N 51°05' E 003°44'0 0.0
2018-Feb-20 23:28N 51°05' E 003°44'0 0.0
2018-Feb-20 22:58N 51°05' E 003°44'0 0.0
2018-Feb-20 22:28N 51°05' E 003°44'0 0.0
2018-Feb-20 21:52N 51°05' E 003°44'0 0.0
2018-Feb-20 21:25N 51°05' E 003°44'0 0.0
2018-Feb-20 20:52N 51°05' E 003°44'0 0.0
2018-Feb-20 20:28N 51°05' E 003°44'0 0.0
2018-Feb-20 19:58N 51°05' E 003°44'0 0.0
2018-Feb-20 19:28N 51°05' E 003°44'0 0.0
2018-Feb-20 18:55N 51°05' E 003°44'0 0.0
2018-Feb-20 18:25N 51°05' E 003°44'0 0.0
2018-Feb-20 17:58N 51°05' E 003°44'0 0.0
2018-Feb-20 17:25N 51°05' E 003°44'0 0.0
2018-Feb-20 16:58N 51°05' E 003°44'0 0.0
2018-Feb-20 16:25N 51°05' E 003°44'0 0.0
2018-Feb-20 15:52N 51°05' E 003°44'0 0.0
2018-Feb-20 15:30N 51°05' E 003°44'0 0.3
2018-Feb-20 15:00N 51°05' E 003°45'0 0.0
2018-Feb-20 14:27N 51°05' E 003°45'0 0.0
2018-Feb-20 13:57N 51°05' E 003°45'0 0.0
2018-Feb-20 13:30N 51°05' E 003°45'0 0.0
2018-Feb-20 12:57N 51°05' E 003°45'0 0.0
2018-Feb-20 12:30N 51°05' E 003°45'0 0.0
2018-Feb-20 11:50N 51°05' E 003°45'0 0.0
2018-Feb-20 11:26N 51°05' E 003°45'0 0.3
2018-Feb-20 11:00N 51°05' E 003°44'2 3.2
2018-Feb-20 10:30N 51°06' E 003°44'3 6.1
2018-Feb-20 10:00N 51°09' E 003°47'3 5.7
2018-Feb-20 09:30N 51°12' E 003°48'3 6.5
2018-Feb-20 09:01N 51°15' E 003°49'3 6.4
2018-Feb-20 08:30N 51°18' E 003°50'2 3.0
2018-Feb-20 07:55N 51°20' E 003°49'0 0.4
2018-Feb-20 07:30N 51°20' E 003°49'1 1.2
2018-Feb-20 07:00N 51°20' E 003°49'1 1.5
2018-Feb-20 06:30N 51°21' E 003°48'2 4.7
2018-Feb-20 06:00N 51°22' E 003°44'5 9.2
2018-Feb-20 05:30N 51°25' E 003°39'2 4.6
2018-Feb-20 05:00N 51°26' E 003°35'4 9.0
2018-Feb-20 04:30N 51°25' E 003°42'510.0
2018-Feb-20 04:00N 51°21' E 003°48'4 8.6
2018-Feb-20 03:30N 51°22' E 003°55'4 7.9
2018-Feb-20 03:00N 51°25' E 003°58'3 5.9
2018-Feb-20 02:30N 51°24' E 004°02'4 8.1
2018-Feb-20 02:00N 51°22' E 004°08'3 6.4
2018-Feb-20 01:30N 51°22' E 004°13'4 9.0
2018-Feb-20 01:00N 51°18' E 004°17'3 5.5
2018-Feb-20 00:31N 51°17' E 004°20'0 0.0
2018-Feb-20 00:00N 51°17' E 004°20'1 1.6
2018-Feb-19 23:30N 51°16' E 004°21'0 0.4
2018-Feb-19 22:55N 51°16' E 004°21'0 0.0
2018-Feb-19 22:25N 51°16' E 004°21'0 0.0
2018-Feb-19 21:55N 51°16' E 004°21'0 0.0
2018-Feb-19 21:25N 51°16' E 004°21'0 0.0
2018-Feb-19 20:55N 51°16' E 004°21'0 0.0
2018-Feb-19 20:22N 51°16' E 004°21'0 0.0
2018-Feb-19 19:43N 51°16' E 004°21'0 0.0
2018-Feb-19 19:25N 51°16' E 004°21'0 0.0
2018-Feb-19 18:13N 51°16' E 004°21'0 0.0
2018-Feb-19 17:55N 51°16' E 004°21'0 0.0
2018-Feb-19 17:22N 51°16' E 004°21'0 0.0
2018-Feb-19 16:58N 51°16' E 004°21'0 0.0
2018-Feb-19 16:28N 51°16' E 004°21'0 0.0
2018-Feb-19 15:58N 51°16' E 004°21'0 0.0
2018-Feb-19 15:25N 51°16' E 004°21'0 0.0
2018-Feb-19 14:58N 51°16' E 004°21'0 0.0
2018-Feb-19 14:19N 51°16' E 004°21'0 0.0
2018-Feb-19 13:58N 51°16' E 004°21'0 0.0
2018-Feb-19 13:22N 51°16' E 004°21'0 0.0
2018-Feb-19 12:46N 51°16' E 004°21'0 0.0
2018-Feb-19 12:07N 51°16' E 004°21'0 0.0
2018-Feb-19 11:58N 51°16' E 004°21'0 0.0
2018-Feb-19 11:22N 51°16' E 004°21'0 0.0
2018-Feb-19 10:55N 51°16' E 004°21'0 0.0
2018-Feb-19 10:25N 51°16' E 004°21'0 0.0
2018-Feb-19 09:58N 51°16' E 004°21'0 0.0
2018-Feb-19 09:25N 51°16' E 004°21'0 0.0
2018-Feb-19 08:58N 51°16' E 004°21'0 0.0
2018-Feb-19 08:13N 51°16' E 004°21'0 0.0
2018-Feb-19 07:58N 51°16' E 004°21'0 0.0
2018-Feb-19 07:22N 51°16' E 004°21'0 0.0
2018-Feb-19 06:49N 51°16' E 004°21'0 0.0
2018-Feb-19 06:19N 51°16' E 004°21'0 0.0
2018-Feb-19 05:55N 51°16' E 004°21'0 0.0
2018-Feb-19 05:28N 51°16' E 004°21'0 0.0
2018-Feb-19 04:55N 51°16' E 004°21'0 0.0
2018-Feb-19 04:25N 51°16' E 004°21'0 0.0
2018-Feb-19 03:55N 51°16' E 004°21'0 0.0
2018-Feb-19 03:28N 51°16' E 004°21'0 0.0
2018-Feb-19 02:58N 51°16' E 004°21'0 0.0
2018-Feb-19 02:28N 51°16' E 004°21'0 0.0
2018-Feb-19 01:49N 51°16' E 004°21'0 0.0
2018-Feb-19 01:28N 51°16' E 004°21'0 0.0
2018-Feb-19 00:55N 51°16' E 004°21'0 0.0
2018-Feb-19 00:28N 51°16' E 004°21'0 0.0
2018-Feb-18 23:58N 51°16' E 004°21'0 0.0
2018-Feb-18 23:19N 51°16' E 004°21'0 0.0
2018-Feb-18 22:58N 51°16' E 004°21'0 0.0
2018-Feb-18 22:19N 51°16' E 004°21'0 0.0
2018-Feb-18 21:52N 51°16' E 004°21'0 0.0
2018-Feb-18 21:16N 51°16' E 004°21'0 0.0
2018-Feb-18 20:52N 51°16' E 004°21'0 0.0
2018-Feb-18 20:25N 51°16' E 004°21'0 0.0
2018-Feb-18 19:58N 51°16' E 004°21'0 0.0
2018-Feb-18 19:28N 51°16' E 004°21'0 0.0
2018-Feb-18 18:52N 51°16' E 004°21'0 0.0
2018-Feb-18 18:28N 51°16' E 004°21'0 0.0
2018-Feb-18 17:58N 51°16' E 004°21'0 0.0
2018-Feb-18 17:28N 51°16' E 004°21'0 0.0
2018-Feb-18 16:55N 51°16' E 004°21'0 0.0
2018-Feb-18 16:28N 51°16' E 004°21'0 0.0
2018-Feb-18 15:58N 51°16' E 004°21'0 0.0
2018-Feb-18 15:28N 51°16' E 004°21'0 0.0
2018-Feb-18 14:52N 51°16' E 004°21'0 0.0
2018-Feb-18 14:28N 51°16' E 004°21'0 0.0
2018-Feb-18 13:55N 51°16' E 004°21'0 0.0
2018-Feb-18 13:25N 51°16' E 004°21'0 0.0
2018-Feb-18 12:58N 51°16' E 004°21'0 0.0
2018-Feb-18 12:28N 51°16' E 004°21'0 0.0
2018-Feb-18 11:58N 51°16' E 004°21'0 0.0
2018-Feb-18 11:28N 51°16' E 004°21'0 0.0
2018-Feb-18 10:58N 51°16' E 004°21'0 0.0
2018-Feb-18 10:28N 51°16' E 004°21'0 0.0
2018-Feb-18 09:58N 51°16' E 004°21'0 0.0
2018-Feb-18 09:28N 51°16' E 004°21'0 0.0
2018-Feb-18 08:58N 51°16' E 004°21'0 0.0
2018-Feb-18 08:22N 51°16' E 004°21'0 0.0
2018-Feb-18 07:58N 51°16' E 004°21'0 0.0
2018-Feb-18 07:28N 51°16' E 004°21'0 0.0
2018-Feb-18 06:58N 51°16' E 004°21'0 0.0
2018-Feb-18 06:28N 51°16' E 004°21'1 2.8
2018-Feb-18 06:01N 51°17' E 004°20'4 7.7
2018-Feb-18 05:31N 51°20' E 004°18'0 0.5
2018-Feb-18 04:36N 51°21' E 004°17'0 0.0
2018-Feb-18 04:28N 51°21' E 004°17'0 0.0
2018-Feb-18 04:01N 51°21' E 004°17'1 1.2
2018-Feb-18 03:30N 51°21' E 004°16'4 7.4
2018-Feb-18 03:01N 51°24' E 004°13'612.8
2018-Feb-18 02:31N 51°23' E 004°02'4 7.0
2018-Feb-18 02:01N 51°23' E 003°57'713.9
2018-Feb-18 01:31N 51°22' E 003°46'713.6
2018-Feb-18 01:00N 51°25' E 003°37'611.5
2018-Feb-18 00:31N 51°25' E 003°28'713.4
2018-Feb-18 00:00N 51°24' E 003°17'612.8
2018-Feb-17 23:30N 51°24' E 003°07'511.0
2018-Feb-17 23:00N 51°23' E 002°58'611.1
2018-Feb-17 22:30N 51°22' E 002°49'510.1
2018-Feb-17 22:00N 51°22' E 002°41'3 6.8
2018-Feb-17 21:30N 51°21' E 002°36'1 2.6
2018-Feb-17 20:58N 51°20' E 002°35'0 0.1
2018-Feb-17 20:28N 51°20' E 002°35'0 0.0
2018-Feb-17 19:55N 51°20' E 002°35'0 0.0
2018-Feb-17 19:25N 51°20' E 002°35'0 0.0
2018-Feb-17 18:58N 51°20' E 002°35'0 0.0
2018-Feb-17 18:28N 51°20' E 002°35'0 0.0
2018-Feb-17 17:58N 51°20' E 002°35'0 0.2
2018-Feb-17 17:28N 51°20' E 002°35'0 0.1
2018-Feb-17 16:58N 51°20' E 002°35'0 0.0
2018-Feb-17 16:28N 51°20' E 002°35'0 0.0
2018-Feb-17 15:58N 51°20' E 002°35'0 0.0
2018-Feb-17 15:25N 51°20' E 002°35'0 0.0
2018-Feb-17 14:55N 51°20' E 002°35'0 0.0
2018-Feb-17 14:28N 51°20' E 002°35'0 0.0
2018-Feb-17 13:58N 51°20' E 002°35'0 0.0
2018-Feb-17 13:28N 51°20' E 002°35'0 0.0
2018-Feb-17 12:58N 51°20' E 002°35'0 0.0
2018-Feb-17 12:28N 51°20' E 002°35'0 0.1
2018-Feb-17 11:58N 51°20' E 002°35'0 0.2
2018-Feb-17 11:28N 51°20' E 002°35'0 0.0
2018-Feb-17 10:55N 51°20' E 002°34'0 0.0
2018-Feb-17 10:28N 51°20' E 002°35'0 0.0
2018-Feb-17 09:58N 51°20' E 002°35'0 0.0
2018-Feb-17 09:25N 51°20' E 002°34'0 0.0
2018-Feb-17 08:55N 51°20' E 002°34'0 0.0
2018-Feb-17 08:28N 51°20' E 002°34'0 0.0
2018-Feb-17 07:58N 51°20' E 002°34'0 0.1
2018-Feb-17 07:25N 51°20' E 002°35'0 0.0
2018-Feb-17 06:55N 51°20' E 002°35'0 0.0
2018-Feb-17 06:28N 51°20' E 002°35'0 0.0
2018-Feb-17 05:58N 51°20' E 002°35'0 0.0
2018-Feb-17 05:22N 51°20' E 002°35'0 0.1
2018-Feb-17 04:58N 51°20' E 002°35'0 0.1
2018-Feb-17 04:28N 51°20' E 002°35'0 0.0
2018-Feb-17 03:49N 51°20' E 002°35'0 0.0
2018-Feb-17 03:22N 51°20' E 002°35'0 0.0
2018-Feb-17 02:55N 51°20' E 002°35'0 0.0
2018-Feb-17 02:28N 51°20' E 002°35'0 0.0
2018-Feb-17 01:58N 51°20' E 002°35'0 0.0
2018-Feb-17 01:25N 51°20' E 002°35'0 0.0
2018-Feb-17 00:58N 51°20' E 002°35'0 0.0
2018-Feb-17 00:25N 51°20' E 002°35'0 0.1
2018-Feb-16 23:52N 51°20' E 002°35'0 0.2
2018-Feb-16 23:28N 51°20' E 002°34'0 0.1
2018-Feb-16 22:58N 51°20' E 002°34'0 0.0
2018-Feb-16 22:28N 51°20' E 002°34'0 0.0
2018-Feb-16 21:58N 51°20' E 002°34'0 0.0
2018-Feb-16 21:28N 51°20' E 002°34'1 2.0
2018-Feb-16 21:00N 51°21' E 002°33'3 5.8
2018-Feb-16 20:30N 51°21' E 002°29'4 8.8
2018-Feb-16 20:00N 51°20' E 002°22'4 8.9
2018-Feb-16 19:31N 51°18' E 002°16'5 9.9
2018-Feb-16 19:01N 51°19' E 002°08'510.5
2018-Feb-16 18:30N 51°23' E 002°01'5 9.9
2018-Feb-16 18:00N 51°27' E 002°01'510.9
2018-Feb-16 17:30N 51°32' E 002°07'510.5
2018-Feb-16 17:00N 51°35' E 002°12'510.1
2018-Feb-16 16:30N 51°39' E 002°18'12 9.2
2018-Feb-16 15:10N 51°47' E 002°33'2 8.5
2018-Feb-16 14:53N 51°45' E 002°32'513.6
2018-Feb-16 14:30N 51°41' E 002°27'714.0
2018-Feb-16 14:00N 51°35' E 002°20'714.1
2018-Feb-16 13:30N 51°29' E 002°14'612.9
2018-Feb-16 13:00N 51°24' E 002°09'611.2
2018-Feb-16 12:30N 51°21' E 002°17'510.5
2018-Feb-16 12:00N 51°22' E 002°26'611.1
2018-Feb-16 11:29N 51°23' E 002°35'511.4
2018-Feb-16 11:00N 51°22' E 002°44'510.7
2018-Feb-16 10:30N 51°22' E 002°52'713.4
2018-Feb-16 10:01N 51°24' E 003°02'612.9
2018-Feb-16 09:30N 51°24' E 003°12'712.9
2018-Feb-16 09:00N 51°25' E 003°23'613.0
2018-Feb-16 08:30N 51°26' E 003°33'4 8.2
2018-Feb-16 08:00N 51°26' E 003°40'612.7
2018-Feb-16 07:31N 51°22' E 003°46'713.5
2018-Feb-16 07:01N 51°23' E 003°57'3 6.7
2018-Feb-16 06:31N 51°24' E 004°02'612.4
2018-Feb-16 06:01N 51°24' E 004°12'612.8
2018-Feb-16 05:31N 51°18' E 004°17'3 5.0
2018-Feb-16 04:59N 51°17' E 004°20'0 0.0
2018-Feb-16 04:30N 51°17' E 004°20'0 0.7
2018-Feb-16 04:01N 51°16' E 004°20'1 2.2
2018-Feb-16 03:30N 51°15' E 004°21'1 1.8
2018-Feb-16 02:58N 51°15' E 004°23'0 0.0
2018-Feb-16 02:28N 51°15' E 004°23'0 0.0
2018-Feb-16 01:58N 51°15' E 004°23'0 0.0
2018-Feb-16 01:28N 51°15' E 004°23'0 0.0
2018-Feb-16 00:58N 51°15' E 004°23'0 0.0
2018-Feb-16 00:28N 51°15' E 004°23'0 0.0
2018-Feb-15 23:58N 51°15' E 004°23'0 0.0
2018-Feb-15 23:19N 51°15' E 004°23'0 0.0
2018-Feb-15 22:58N 51°15' E 004°23'0 0.0
2018-Feb-15 22:25N 51°15' E 004°23'0 0.0
2018-Feb-15 21:55N 51°15' E 004°23'0 0.0
2018-Feb-15 21:28N 51°15' E 004°23'0 0.0
2018-Feb-15 20:58N 51°15' E 004°23'0 0.0
2018-Feb-15 20:28N 51°15' E 004°23'0 0.0
2018-Feb-15 19:58N 51°15' E 004°23'0 0.0
2018-Feb-15 19:28N 51°15' E 004°23'0 0.0
2018-Feb-15 18:58N 51°15' E 004°23'0 0.7
2018-Feb-15 18:30N 51°15' E 004°22'1 2.7
2018-Feb-15 17:58N 51°16' E 004°21'0 0.0
2018-Feb-15 17:28N 51°16' E 004°21'0 0.0
2018-Feb-15 16:55N 51°16' E 004°21'0 0.0
2018-Feb-15 16:28N 51°16' E 004°21'0 0.0
2018-Feb-15 15:58N 51°16' E 004°21'0 0.0
2018-Feb-15 15:28N 51°16' E 004°21'0 0.0
2018-Feb-15 14:52N 51°16' E 004°21'0 0.0
2018-Feb-15 14:19N 51°16' E 004°21'0 0.0
2018-Feb-15 13:58N 51°16' E 004°21'0 0.0
2018-Feb-15 13:28N 51°16' E 004°21'0 0.0
2018-Feb-15 12:58N 51°16' E 004°21'0 0.0
2018-Feb-15 12:28N 51°16' E 004°21'0 0.0
2018-Feb-15 11:46N 51°16' E 004°21'0 0.0
2018-Feb-15 11:28N 51°16' E 004°21'0 0.0
2018-Feb-15 10:58N 51°16' E 004°21'0 0.0
2018-Feb-15 10:22N 51°16' E 004°21'0 0.0
2018-Feb-15 09:52N 51°16' E 004°21'0 0.0
2018-Feb-15 09:28N 51°16' E 004°21'0 0.0
2018-Feb-15 08:58N 51°16' E 004°21'0 0.0
2018-Feb-15 08:25N 51°16' E 004°21'0 0.0
2018-Feb-15 07:52N 51°16' E 004°21'0 0.0
2018-Feb-15 07:28N 51°16' E 004°21'0 0.0
2018-Feb-15 06:58N 51°16' E 004°21'0 0.0
2018-Feb-15 06:25N 51°16' E 004°21'0 0.0
2018-Feb-15 05:58N 51°16' E 004°21'0 0.0
2018-Feb-15 05:28N 51°16' E 004°21'0 0.0
2018-Feb-15 04:49N 51°16' E 004°21'0 0.0
2018-Feb-15 04:25N 51°16' E 004°21'0 0.0
2018-Feb-15 03:55N 51°16' E 004°21'0 0.0
2018-Feb-15 03:25N 51°16' E 004°21'0 0.0
2018-Feb-15 02:52N 51°16' E 004°21'0 0.0
2018-Feb-15 02:28N 51°16' E 004°21'0 0.0
2018-Feb-15 01:58N 51°16' E 004°21'0 0.0
2018-Feb-15 01:22N 51°16' E 004°21'0 0.0
2018-Feb-15 00:58N 51°16' E 004°21'0 0.0
2018-Feb-15 00:25N 51°16' E 004°21'0 0.0
2018-Feb-14 23:58N 51°16' E 004°21'0 0.0
2018-Feb-14 23:28N 51°16' E 004°21'0 0.0
2018-Feb-14 22:58N 51°16' E 004°21'0 0.0
2018-Feb-14 22:28N 51°16' E 004°21'0 0.0
2018-Feb-14 21:52N 51°16' E 004°21'0 0.0
2018-Feb-14 21:28N 51°16' E 004°21'0 0.0
2018-Feb-14 20:58N 51°16' E 004°21'0 0.0
2018-Feb-14 20:25N 51°16' E 004°21'0 0.0
2018-Feb-14 19:58N 51°16' E 004°21'0 0.0
2018-Feb-14 19:28N 51°16' E 004°21'0 0.0
2018-Feb-14 18:55N 51°16' E 004°21'0 0.0
2018-Feb-14 18:28N 51°16' E 004°21'0 0.0
2018-Feb-14 17:55N 51°16' E 004°21'0 0.0
2018-Feb-14 17:28N 51°16' E 004°21'0 0.0
2018-Feb-14 16:55N 51°16' E 004°21'0 0.0
2018-Feb-14 16:28N 51°16' E 004°21'0 0.0
2018-Feb-14 15:55N 51°16' E 004°21'0 0.0
2018-Feb-14 15:28N 51°16' E 004°21'0 0.0
2018-Feb-14 14:58N 51°16' E 004°21'0 0.0
2018-Feb-14 14:13N 51°16' E 004°21'0 0.0
2018-Feb-14 13:58N 51°16' E 004°21'1 1.6
2018-Feb-14 13:30N 51°17' E 004°20'0 0.0
2018-Feb-14 13:01N 51°17' E 004°20'1 1.5
2018-Feb-14 12:31N 51°17' E 004°19'3 6.6
2018-Feb-14 12:00N 51°20' E 004°16'5 9.9
2018-Feb-14 11:30N 51°23' E 004°10'510.6
2018-Feb-14 11:01N 51°24' E 004°02'3 7.0
2018-Feb-14 10:31N 51°23' E 003°57'612.5
2018-Feb-14 10:01N 51°21' E 003°47'611.8
2018-Feb-14 09:30N 51°26' E 003°41'5 9.5
2018-Feb-14 09:01N 51°25' E 003°33'5 9.8
2018-Feb-14 08:31N 51°25' E 003°26'611.5
2018-Feb-14 08:00N 51°24' E 003°17'511.0
2018-Feb-14 07:31N 51°24' E 003°08'510.4
2018-Feb-14 07:01N 51°23' E 002°60'510.6
2018-Feb-14 06:31N 51°22' E 002°51'610.3
2018-Feb-14 05:58N 51°22' E 002°43'3 6.9
2018-Feb-14 05:30N 51°22' E 002°37'3 6.8
2018-Feb-14 05:00N 51°22' E 002°32'510.8
2018-Feb-14 04:30N 51°20' E 002°24'612.1
2018-Feb-14 04:00N 51°17' E 002°16'612.5
2018-Feb-14 03:31N 51°13' E 002°08'612.5
2018-Feb-14 03:00N 51°10' E 001°59'612.9
2018-Feb-14 02:30N 51°07' E 001°50'713.3
2018-Feb-14 02:01N 51°03' E 001°42'713.9
2018-Feb-14 01:31N 50°58' E 001°34'714.1
2018-Feb-14 01:00N 50°52' E 001°28'714.2
2018-Feb-14 00:30N 50°45' E 001°25'713.4
2018-Feb-13 23:58N 50°39' E 001°18'9013.0
2018-Feb-13 17:01N 50°09' W 000°55'011.2
2018-Feb-13 17:00N 50°09' W 000°56'611.6
2018-Feb-13 16:30N 50°08' W 001°04'611.1
2018-Feb-13 16:00N 50°07' W 001°13'510.5
2018-Feb-13 15:30N 50°05' W 001°21'510.6
2018-Feb-13 15:00N 50°04' W 001°29'510.5
2018-Feb-13 14:30N 50°02' W 001°36'510.0
2018-Feb-13 14:01N 50°01' W 001°44'5 9.6
2018-Feb-13 13:31N 49°60' W 001°51'5 9.4
2018-Feb-13 13:00N 49°59' W 001°58'5 9.2
2018-Feb-13 12:31N 49°57' W 002°05'5 9.3
2018-Feb-13 12:00N 49°56' W 002°12'5 9.6
2018-Feb-13 11:31N 49°55' W 002°19'510.1
2018-Feb-13 11:01N 49°54' W 002°27'510.4
2018-Feb-13 10:30N 49°52' W 002°35'510.8
2018-Feb-13 10:00N 49°51' W 002°43'510.9
2018-Feb-13 09:31N 49°50' W 002°51'611.2
2018-Feb-13 09:00N 49°47' W 002°59'611.3
2018-Feb-13 08:30N 49°44' W 003°06'611.2
2018-Feb-13 08:00N 49°41' W 003°14'611.4
2018-Feb-13 07:30N 49°39' W 003°22'  

Dump ship's entire track history